sensor_id;sensor_type;location;lat;lon;timestamp;P1;durP1;ratioP1;P2;durP2;ratioP2
36303;SDS011;22335;49.800;8.596;2024-01-11T00:00:44;62.05;;;45.03;;
36303;SDS011;22335;49.800;8.596;2024-01-11T00:07:28;56.50;;;43.42;;
36303;SDS011;22335;49.800;8.596;2024-01-11T00:14:11;62.42;;;44.60;;
36303;SDS011;22335;49.800;8.596;2024-01-11T00:20:56;63.17;;;44.65;;
36303;SDS011;22335;49.800;8.596;2024-01-11T00:27:40;59.20;;;43.53;;
36303;SDS011;22335;49.800;8.596;2024-01-11T00:34:23;58.17;;;44.05;;
36303;SDS011;22335;49.800;8.596;2024-01-11T00:41:08;60.28;;;44.45;;
36303;SDS011;22335;49.800;8.596;2024-01-11T00:47:52;60.05;;;44.60;;
36303;SDS011;22335;49.800;8.596;2024-01-11T00:54:35;62.38;;;45.00;;
36303;SDS011;22335;49.800;8.596;2024-01-11T01:01:20;61.00;;;45.80;;
36303;SDS011;22335;49.800;8.596;2024-01-11T01:08:04;59.30;;;43.63;;
36303;SDS011;22335;49.800;8.596;2024-01-11T01:14:47;61.65;;;44.42;;
36303;SDS011;22335;49.800;8.596;2024-01-11T01:21:32;58.78;;;44.08;;
36303;SDS011;22335;49.800;8.596;2024-01-11T01:28:15;58.45;;;44.70;;
36303;SDS011;22335;49.800;8.596;2024-01-11T01:34:59;62.38;;;44.33;;
36303;SDS011;22335;49.800;8.596;2024-01-11T01:41:44;58.40;;;43.67;;
36303;SDS011;22335;49.800;8.596;2024-01-11T01:48:27;60.72;;;44.90;;
36303;SDS011;22335;49.800;8.596;2024-01-11T01:55:12;58.50;;;43.78;;
36303;SDS011;22335;49.800;8.596;2024-01-11T02:02:00;60.88;;;45.35;;
36303;SDS011;22335;49.800;8.596;2024-01-11T02:08:43;60.35;;;45.38;;
36303;SDS011;22335;49.800;8.596;2024-01-11T02:15:28;59.42;;;45.80;;
36303;SDS011;22335;49.800;8.596;2024-01-11T02:22:15;61.58;;;44.53;;
36303;SDS011;22335;49.800;8.596;2024-01-11T02:29:06;62.00;;;44.63;;
36303;SDS011;22335;49.800;8.596;2024-01-11T02:35:50;55.17;;;42.65;;
36303;SDS011;22335;49.800;8.596;2024-01-11T02:42:33;57.67;;;43.05;;
36303;SDS011;22335;49.800;8.596;2024-01-11T02:49:18;55.47;;;43.70;;
36303;SDS011;22335;49.800;8.596;2024-01-11T02:56:02;52.35;;;42.40;;
36303;SDS011;22335;49.800;8.596;2024-01-11T03:02:46;50.70;;;42.50;;
36303;SDS011;22335;49.800;8.596;2024-01-11T03:09:31;56.92;;;42.90;;
36303;SDS011;22335;49.800;8.596;2024-01-11T03:16:15;56.70;;;43.25;;
36303;SDS011;22335;49.800;8.596;2024-01-11T03:22:58;53.75;;;40.97;;
36303;SDS011;22335;49.800;8.596;2024-01-11T03:29:44;52.80;;;42.45;;
36303;SDS011;22335;49.800;8.596;2024-01-11T03:36:27;53.42;;;41.95;;
36303;SDS011;22335;49.800;8.596;2024-01-11T03:43:11;54.22;;;42.78;;
36303;SDS011;22335;49.800;8.596;2024-01-11T04:04:58;51.13;;;41.65;;
36303;SDS011;22335;49.800;8.596;2024-01-11T04:11:42;53.85;;;40.65;;
36303;SDS011;22335;49.800;8.596;2024-01-11T04:18:25;56.45;;;41.83;;
36303;SDS011;22335;49.800;8.596;2024-01-11T04:25:10;53.72;;;42.25;;
36303;SDS011;22335;49.800;8.596;2024-01-11T04:31:54;51.53;;;41.13;;
36303;SDS011;22335;49.800;8.596;2024-01-11T04:38:38;61.03;;;43.75;;
36303;SDS011;22335;49.800;8.596;2024-01-11T04:45:23;58.63;;;44.00;;
36303;SDS011;22335;49.800;8.596;2024-01-11T04:52:07;64.05;;;45.83;;
36303;SDS011;22335;49.800;8.596;2024-01-11T04:58:50;60.50;;;44.67;;
36303;SDS011;22335;49.800;8.596;2024-01-11T05:05:36;59.70;;;45.45;;
36303;SDS011;22335;49.800;8.596;2024-01-11T05:12:19;56.92;;;44.38;;
36303;SDS011;22335;49.800;8.596;2024-01-11T05:19:03;66.13;;;46.78;;
36303;SDS011;22335;49.800;8.596;2024-01-11T05:25:47;67.60;;;47.83;;
36303;SDS011;22335;49.800;8.596;2024-01-11T05:32:31;68.90;;;48.08;;
36303;SDS011;22335;49.800;8.596;2024-01-11T05:39:15;63.90;;;45.75;;
36303;SDS011;22335;49.800;8.596;2024-01-11T05:46:00;66.63;;;46.58;;
36303;SDS011;22335;49.800;8.596;2024-01-11T05:52:43;67.65;;;47.33;;
36303;SDS011;22335;49.800;8.596;2024-01-11T05:59:27;68.22;;;47.95;;
36303;SDS011;22335;49.800;8.596;2024-01-11T06:06:11;67.65;;;47.85;;
36303;SDS011;22335;49.800;8.596;2024-01-11T06:12:55;67.82;;;48.08;;
36303;SDS011;22335;49.800;8.596;2024-01-11T06:19:39;68.20;;;48.10;;
36303;SDS011;22335;49.800;8.596;2024-01-11T06:26:23;66.03;;;47.22;;
36303;SDS011;22335;49.800;8.596;2024-01-11T06:33:07;67.35;;;46.33;;
36303;SDS011;22335;49.800;8.596;2024-01-11T06:39:50;65.82;;;46.03;;
36303;SDS011;22335;49.800;8.596;2024-01-11T06:46:35;65.85;;;46.60;;
36303;SDS011;22335;49.800;8.596;2024-01-11T06:53:20;66.70;;;48.03;;
36303;SDS011;22335;49.800;8.596;2024-01-11T07:00:04;64.57;;;45.67;;
36303;SDS011;22335;49.800;8.596;2024-01-11T07:06:51;60.03;;;45.38;;
36303;SDS011;22335;49.800;8.596;2024-01-11T07:13:34;72.97;;;46.35;;
36303;SDS011;22335;49.800;8.596;2024-01-11T07:20:18;69.45;;;46.75;;
36303;SDS011;22335;49.800;8.596;2024-01-11T07:27:03;65.03;;;46.15;;
36303;SDS011;22335;49.800;8.596;2024-01-11T07:33:47;64.28;;;46.70;;
36303;SDS011;22335;49.800;8.596;2024-01-11T07:40:31;62.55;;;46.65;;
36303;SDS011;22335;49.800;8.596;2024-01-11T07:47:16;62.45;;;45.88;;
36303;SDS011;22335;49.800;8.596;2024-01-11T07:53:59;66.10;;;46.35;;
36303;SDS011;22335;49.800;8.596;2024-01-11T08:00:44;65.43;;;47.35;;
36303;SDS011;22335;49.800;8.596;2024-01-11T08:07:29;68.20;;;46.88;;
36303;SDS011;22335;49.800;8.596;2024-01-11T08:14:12;68.88;;;47.80;;
36303;SDS011;22335;49.800;8.596;2024-01-11T08:20:57;63.85;;;46.53;;
36303;SDS011;22335;49.800;8.596;2024-01-11T08:27:41;67.55;;;46.53;;
36303;SDS011;22335;49.800;8.596;2024-01-11T08:34:25;72.68;;;48.97;;
36303;SDS011;22335;49.800;8.596;2024-01-11T08:41:08;68.22;;;46.97;;
36303;SDS011;22335;49.800;8.596;2024-01-11T08:47:53;72.82;;;48.58;;
36303;SDS011;22335;49.800;8.596;2024-01-11T08:54:37;70.05;;;47.55;;
36303;SDS011;22335;49.800;8.596;2024-01-11T09:01:21;72.82;;;49.03;;
36303;SDS011;22335;49.800;8.596;2024-01-11T09:08:07;70.05;;;47.47;;
36303;SDS011;22335;49.800;8.596;2024-01-11T09:14:51;68.78;;;47.83;;
36303;SDS011;22335;49.800;8.596;2024-01-11T09:21:34;71.60;;;47.47;;
36303;SDS011;22335;49.800;8.596;2024-01-11T09:28:19;65.97;;;47.42;;
36303;SDS011;22335;49.800;8.596;2024-01-11T09:35:03;66.13;;;46.72;;
36303;SDS011;22335;49.800;8.596;2024-01-11T09:41:49;67.53;;;48.25;;
36303;SDS011;22335;49.800;8.596;2024-01-11T09:48:40;69.13;;;47.90;;
36303;SDS011;22335;49.800;8.596;2024-01-11T09:55:26;69.63;;;48.25;;
36303;SDS011;22335;49.800;8.596;2024-01-11T10:02:10;71.90;;;48.05;;
36303;SDS011;22335;49.800;8.596;2024-01-11T10:08:56;68.93;;;47.80;;
36303;SDS011;22335;49.800;8.596;2024-01-11T10:15:39;67.68;;;47.55;;
36303;SDS011;22335;49.800;8.596;2024-01-11T10:22:23;66.43;;;47.58;;
36303;SDS011;22335;49.800;8.596;2024-01-11T10:29:07;65.70;;;46.55;;
36303;SDS011;22335;49.800;8.596;2024-01-11T10:35:52;65.07;;;44.42;;
36303;SDS011;22335;49.800;8.596;2024-01-11T10:42:38;62.60;;;45.65;;
36303;SDS011;22335;49.800;8.596;2024-01-11T10:49:27;66.32;;;47.28;;
36303;SDS011;22335;49.800;8.596;2024-01-11T10:56:11;66.15;;;47.45;;
36303;SDS011;22335;49.800;8.596;2024-01-11T11:02:55;65.68;;;46.95;;
36303;SDS011;22335;49.800;8.596;2024-01-11T11:09:42;68.00;;;46.75;;
36303;SDS011;22335;49.800;8.596;2024-01-11T11:16:27;64.60;;;45.95;;
36303;SDS011;22335;49.800;8.596;2024-01-11T11:23:11;66.05;;;47.88;;
36303;SDS011;22335;49.800;8.596;2024-01-11T11:30:00;68.07;;;47.88;;
36303;SDS011;22335;49.800;8.596;2024-01-11T11:36:45;66.85;;;47.80;;
36303;SDS011;22335;49.800;8.596;2024-01-11T11:43:31;177.75;;;74.82;;
36303;SDS011;22335;49.800;8.596;2024-01-11T11:50:17;215.80;;;82.95;;
36303;SDS011;22335;49.800;8.596;2024-01-11T11:57:05;59.42;;;44.63;;
36303;SDS011;22335;49.800;8.596;2024-01-11T12:03:49;62.17;;;44.88;;
36303;SDS011;22335;49.800;8.596;2024-01-11T12:10:34;66.95;;;44.92;;
36303;SDS011;22335;49.800;8.596;2024-01-11T12:17:18;60.30;;;44.60;;
36303;SDS011;22335;49.800;8.596;2024-01-11T12:24:01;68.22;;;45.28;;
36303;SDS011;22335;49.800;8.596;2024-01-11T12:30:46;55.65;;;41.63;;
36303;SDS011;22335;49.800;8.596;2024-01-11T12:37:30;55.08;;;43.45;;
36303;SDS011;22335;49.800;8.596;2024-01-11T12:44:13;62.03;;;45.00;;
36303;SDS011;22335;49.800;8.596;2024-01-11T12:50:59;63.92;;;45.47;;
36303;SDS011;22335;49.800;8.596;2024-01-11T12:57:45;58.80;;;44.72;;
36303;SDS011;22335;49.800;8.596;2024-01-11T13:04:29;61.63;;;44.65;;
36303;SDS011;22335;49.800;8.596;2024-01-11T13:11:14;59.25;;;43.05;;
36303;SDS011;22335;49.800;8.596;2024-01-11T13:17:59;55.30;;;43.22;;
36303;SDS011;22335;49.800;8.596;2024-01-11T13:24:42;58.25;;;42.85;;
36303;SDS011;22335;49.800;8.596;2024-01-11T13:31:27;55.72;;;42.03;;
36303;SDS011;22335;49.800;8.596;2024-01-11T13:38:11;56.88;;;41.58;;
36303;SDS011;22335;49.800;8.596;2024-01-11T13:44:54;55.20;;;40.97;;
36303;SDS011;22335;49.800;8.596;2024-01-11T13:51:39;53.63;;;42.00;;
36303;SDS011;22335;49.800;8.596;2024-01-11T13:58:26;56.88;;;42.88;;
36303;SDS011;22335;49.800;8.596;2024-01-11T14:05:10;51.35;;;40.92;;
36303;SDS011;22335;49.800;8.596;2024-01-11T14:11:56;55.63;;;41.88;;
36303;SDS011;22335;49.800;8.596;2024-01-11T14:18:39;60.85;;;43.22;;
36303;SDS011;22335;49.800;8.596;2024-01-11T14:25:23;53.47;;;41.55;;
36303;SDS011;22335;49.800;8.596;2024-01-11T14:32:08;49.00;;;40.00;;
36303;SDS011;22335;49.800;8.596;2024-01-11T14:38:57;51.28;;;39.75;;
36303;SDS011;22335;49.800;8.596;2024-01-11T14:45:40;52.33;;;41.60;;
36303;SDS011;22335;49.800;8.596;2024-01-11T14:52:25;54.42;;;40.95;;
36303;SDS011;22335;49.800;8.596;2024-01-11T14:59:09;52.38;;;41.47;;
36303;SDS011;22335;49.800;8.596;2024-01-11T15:05:52;52.17;;;41.55;;
36303;SDS011;22335;49.800;8.596;2024-01-11T15:12:37;54.47;;;41.22;;
36303;SDS011;22335;49.800;8.596;2024-01-11T15:19:21;52.97;;;40.75;;
36303;SDS011;22335;49.800;8.596;2024-01-11T15:26:05;53.55;;;41.20;;
36303;SDS011;22335;49.800;8.596;2024-01-11T15:32:50;54.05;;;42.60;;
36303;SDS011;22335;49.800;8.596;2024-01-11T15:39:34;70.82;;;47.65;;
36303;SDS011;22335;49.800;8.596;2024-01-11T15:46:17;64.53;;;46.20;;
36303;SDS011;22335;49.800;8.596;2024-01-11T15:53:02;57.42;;;43.85;;
36303;SDS011;22335;49.800;8.596;2024-01-11T15:59:46;51.08;;;41.10;;
36303;SDS011;22335;49.800;8.596;2024-01-11T16:06:30;53.53;;;41.90;;
36303;SDS011;22335;49.800;8.596;2024-01-11T16:13:15;59.90;;;45.47;;
36303;SDS011;22335;49.800;8.596;2024-01-11T16:19:59;66.80;;;47.03;;
36303;SDS011;22335;49.800;8.596;2024-01-11T16:26:43;66.93;;;46.40;;
36303;SDS011;22335;49.800;8.596;2024-01-11T16:33:28;60.63;;;46.05;;
36303;SDS011;22335;49.800;8.596;2024-01-11T16:40:12;64.18;;;46.08;;
36303;SDS011;22335;49.800;8.596;2024-01-11T16:46:56;63.88;;;47.83;;
36303;SDS011;22335;49.800;8.596;2024-01-11T16:53:42;67.28;;;47.50;;
36303;SDS011;22335;49.800;8.596;2024-01-11T17:00:25;59.67;;;46.70;;
36303;SDS011;22335;49.800;8.596;2024-01-11T17:07:09;62.92;;;46.70;;
36303;SDS011;22335;49.800;8.596;2024-01-11T17:13:54;67.97;;;48.13;;
36303;SDS011;22335;49.800;8.596;2024-01-11T17:20:37;66.07;;;48.03;;
36303;SDS011;22335;49.800;8.596;2024-01-11T17:27:21;70.50;;;50.72;;
36303;SDS011;22335;49.800;8.596;2024-01-11T17:34:06;69.07;;;49.55;;
36303;SDS011;22335;49.800;8.596;2024-01-11T17:40:50;70.35;;;50.03;;
36303;SDS011;22335;49.800;8.596;2024-01-11T17:47:33;67.25;;;48.55;;
36303;SDS011;22335;49.800;8.596;2024-01-11T17:54:18;69.22;;;48.47;;
36303;SDS011;22335;49.800;8.596;2024-01-11T18:01:02;72.57;;;51.60;;
36303;SDS011;22335;49.800;8.596;2024-01-11T18:07:45;103.40;;;65.47;;
36303;SDS011;22335;49.800;8.596;2024-01-11T18:14:30;76.18;;;53.00;;
36303;SDS011;22335;49.800;8.596;2024-01-11T18:21:14;97.75;;;63.72;;
36303;SDS011;22335;49.800;8.596;2024-01-11T18:27:57;79.38;;;54.75;;
36303;SDS011;22335;49.800;8.596;2024-01-11T18:34:42;76.90;;;52.65;;
36303;SDS011;22335;49.800;8.596;2024-01-11T18:41:26;75.72;;;53.10;;
36303;SDS011;22335;49.800;8.596;2024-01-11T18:48:10;87.60;;;59.28;;
36303;SDS011;22335;49.800;8.596;2024-01-11T18:54:55;78.32;;;53.38;;
36303;SDS011;22335;49.800;8.596;2024-01-11T19:01:44;65.68;;;48.72;;
36303;SDS011;22335;49.800;8.596;2024-01-11T19:08:29;98.38;;;60.05;;
36303;SDS011;22335;49.800;8.596;2024-01-11T19:15:14;84.85;;;55.55;;
36303;SDS011;22335;49.800;8.596;2024-01-11T19:21:58;73.18;;;49.67;;
36303;SDS011;22335;49.800;8.596;2024-01-11T19:28:41;68.95;;;50.03;;
36303;SDS011;22335;49.800;8.596;2024-01-11T19:35:26;67.55;;;48.03;;
36303;SDS011;22335;49.800;8.596;2024-01-11T19:42:09;65.40;;;46.70;;
36303;SDS011;22335;49.800;8.596;2024-01-11T19:48:53;59.72;;;46.92;;
36303;SDS011;22335;49.800;8.596;2024-01-11T19:55:38;67.85;;;50.17;;
36303;SDS011;22335;49.800;8.596;2024-01-11T20:02:22;66.28;;;48.40;;
36303;SDS011;22335;49.800;8.596;2024-01-11T20:09:05;57.90;;;46.33;;
36303;SDS011;22335;49.800;8.596;2024-01-11T20:15:50;60.53;;;45.72;;
36303;SDS011;22335;49.800;8.596;2024-01-11T20:22:34;65.95;;;46.20;;
36303;SDS011;22335;49.800;8.596;2024-01-11T20:29:17;64.45;;;46.33;;
36303;SDS011;22335;49.800;8.596;2024-01-11T20:36:02;64.85;;;46.15;;
36303;SDS011;22335;49.800;8.596;2024-01-11T20:42:48;62.42;;;45.28;;
36303;SDS011;22335;49.800;8.596;2024-01-11T20:49:31;53.10;;;42.53;;
36303;SDS011;22335;49.800;8.596;2024-01-11T20:56:16;48.47;;;40.42;;
36303;SDS011;22335;49.800;8.596;2024-01-11T21:03:00;47.60;;;39.65;;
36303;SDS011;22335;49.800;8.596;2024-01-11T21:09:43;45.65;;;39.08;;
36303;SDS011;22335;49.800;8.596;2024-01-11T21:16:28;43.30;;;38.53;;
36303;SDS011;22335;49.800;8.596;2024-01-11T21:23:12;60.45;;;45.15;;
36303;SDS011;22335;49.800;8.596;2024-01-11T21:29:55;54.55;;;42.80;;
36303;SDS011;22335;49.800;8.596;2024-01-11T21:36:40;49.78;;;41.35;;
36303;SDS011;22335;49.800;8.596;2024-01-11T21:43:23;43.38;;;37.83;;
36303;SDS011;22335;49.800;8.596;2024-01-11T21:50:07;47.55;;;40.58;;
36303;SDS011;22335;49.800;8.596;2024-01-11T21:56:53;50.03;;;41.35;;
36303;SDS011;22335;49.800;8.596;2024-01-11T22:03:39;48.55;;;39.83;;
36303;SDS011;22335;49.800;8.596;2024-01-11T22:10:23;43.60;;;37.75;;
36303;SDS011;22335;49.800;8.596;2024-01-11T22:17:07;42.47;;;37.15;;
36303;SDS011;22335;49.800;8.596;2024-01-11T22:23:51;39.72;;;35.47;;
36303;SDS011;22335;49.800;8.596;2024-01-11T22:30:34;35.65;;;32.10;;
36303;SDS011;22335;49.800;8.596;2024-01-11T22:37:20;35.92;;;32.47;;
36303;SDS011;22335;49.800;8.596;2024-01-11T22:44:04;35.40;;;31.98;;
36303;SDS011;22335;49.800;8.596;2024-01-11T22:50:48;32.85;;;29.95;;
36303;SDS011;22335;49.800;8.596;2024-01-11T22:57:32;33.47;;;30.48;;
36303;SDS011;22335;49.800;8.596;2024-01-11T23:04:16;33.65;;;30.70;;
36303;SDS011;22335;49.800;8.596;2024-01-11T23:10:59;33.45;;;30.45;;
36303;SDS011;22335;49.800;8.596;2024-01-11T23:17:45;33.65;;;30.35;;
36303;SDS011;22335;49.800;8.596;2024-01-11T23:24:29;35.65;;;32.25;;
36303;SDS011;22335;49.800;8.596;2024-01-11T23:31:12;35.50;;;32.03;;
36303;SDS011;22335;49.800;8.596;2024-01-11T23:37:58;35.00;;;31.80;;
36303;SDS011;22335;49.800;8.596;2024-01-11T23:44:41;32.97;;;29.98;;
36303;SDS011;22335;49.800;8.596;2024-01-11T23:51:25;33.97;;;30.60;;
36303;SDS011;22335;49.800;8.596;2024-01-11T23:58:10;35.25;;;31.85;;
